createdAt,value
2022-12-01T00:02:21.839Z,-147.88
2022-12-01T00:04:48.890Z,-147.88
2022-12-01T00:07:15.631Z,-147.88
2022-12-01T00:10:02.359Z,-147.88
2022-12-01T00:12:30.117Z,-147.88
2022-12-01T00:15:01.101Z,-147.88
2022-12-01T00:17:29.200Z,-147.88
2022-12-01T00:19:56.405Z,-147.88
2022-12-01T00:22:23.247Z,-147.88
2022-12-01T00:24:51.312Z,-147.88
2022-12-01T00:27:18.097Z,-147.88
2022-12-01T00:29:46.367Z,-147.88
2022-12-01T00:32:13.330Z,-147.88
2022-12-01T00:34:40.307Z,-147.88
2022-12-01T00:37:07.032Z,4.73
2022-12-01T00:39:33.795Z,4.72
2022-12-01T00:42:01.868Z,4.74
2022-12-01T00:44:28.615Z,4.75
2022-12-01T00:46:55.333Z,4.72
2022-12-01T00:49:22.007Z,4.73
2022-12-01T00:51:48.745Z,4.77
2022-12-01T00:54:15.494Z,4.74
2022-12-01T00:56:45.264Z,4.69
2022-12-01T00:59:13.551Z,4.66
2022-12-01T01:01:40.397Z,4.73
2022-12-01T01:04:07.119Z,4.71
2022-12-01T01:06:33.885Z,4.71
2022-12-01T01:09:00.540Z,4.65
2022-12-01T01:11:27.286Z,4.68
2022-12-01T01:13:53.942Z,4.67
2022-12-01T01:16:22.882Z,4.61
2022-12-01T01:18:49.910Z,4.58
2022-12-01T01:21:19.227Z,4.51
2022-12-01T01:23:46.088Z,4.42
2022-12-01T01:26:16.038Z,4.39
2022-12-01T01:28:42.720Z,4.35
2022-12-01T01:31:11.958Z,4.39
2022-12-01T01:33:40.122Z,4.37
2022-12-01T01:36:07.540Z,4.25
2022-12-01T01:38:34.756Z,4.25
2022-12-01T01:41:01.583Z,4.24
2022-12-01T01:43:44.624Z,4.28
2022-12-01T01:46:14.352Z,4.21
2022-12-01T01:48:46.075Z,4.21
2022-12-01T01:51:14.645Z,4.19
2022-12-01T01:53:43.004Z,4.17
2022-12-01T01:56:14.361Z,4.19
2022-12-01T01:58:42.272Z,4.20
2022-12-01T02:01:09.091Z,4.12
2022-12-01T02:03:37.207Z,4.17
2022-12-01T02:06:07.778Z,4.20
2022-12-01T02:08:35.920Z,4.19
2022-12-01T02:11:22.347Z,4.16
2022-12-01T02:14:04.081Z,4.10
2022-12-01T02:16:41.615Z,4.17
2022-12-01T02:19:29.850Z,4.09
2022-12-01T02:22:11.041Z,3.96
2022-12-01T02:25:05.367Z,3.98
2022-12-01T02:27:51.113Z,3.81
2022-12-01T02:30:27.395Z,3.74
2022-12-01T02:33:06.851Z,-147.88
2022-12-01T02:35:43.934Z,-147.88
2022-12-01T02:38:18.251Z,-147.88
2022-12-01T02:40:50.786Z,-147.88
2022-12-01T02:43:27.274Z,-147.88
2022-12-01T02:45:59.275Z,3.74
2022-12-01T02:48:29.827Z,-147.88
2022-12-01T02:51:01.071Z,-147.88
2022-12-01T02:53:27.806Z,-147.88
2022-12-01T02:55:57.753Z,-147.88
2022-12-01T02:58:24.586Z,3.23
2022-12-01T03:01:20.672Z,3.25
2022-12-01T03:04:02.612Z,3.25
2022-12-01T03:06:39.868Z,3.30
2022-12-01T03:09:15.738Z,-147.88
2022-12-01T03:11:53.379Z,-147.88
2022-12-01T03:14:33.487Z,-147.88
2022-12-01T03:17:08.077Z,-147.88
2022-12-01T03:19:41.502Z,-147.88
2022-12-01T03:22:12.641Z,-147.88
2022-12-01T03:24:43.431Z,-147.88
2022-12-01T03:27:13.843Z,3.29
2022-12-01T03:29:44.997Z,-147.88
2022-12-01T03:32:19.408Z,-147.88
2022-12-01T03:34:50.186Z,-147.88
2022-12-01T03:37:22.427Z,-147.88
2022-12-01T03:39:54.741Z,-147.88
2022-12-01T03:42:28.172Z,-147.88
2022-12-01T03:44:58.581Z,-147.88
2022-12-01T03:47:32.143Z,-147.88
2022-12-01T03:50:00.566Z,3.07
2022-12-01T03:52:38.681Z,2.98
2022-12-01T03:55:12.035Z,3.03
2022-12-01T03:57:45.671Z,3.08
2022-12-01T04:00:15.145Z,3.03
2022-12-01T04:02:44.883Z,3.05
2022-12-01T04:05:11.854Z,3.11
2022-12-01T04:07:39.764Z,3.09
2022-12-01T04:10:08.044Z,3.16
2022-12-01T04:12:35.008Z,3.15
2022-12-01T04:15:04.168Z,3.09
2022-12-01T04:17:30.970Z,3.11
2022-12-01T04:19:58.998Z,3.17
2022-12-01T04:22:26.301Z,3.13
2022-12-01T04:24:53.338Z,3.15
2022-12-01T04:27:20.432Z,3.16
2022-12-01T04:29:47.719Z,3.19
2022-12-01T04:32:15.029Z,3.26
2022-12-01T04:34:41.761Z,3.25
2022-12-01T04:37:10.223Z,3.21
2022-12-01T04:39:37.227Z,3.25
2022-12-01T04:42:04.301Z,3.29
2022-12-01T04:44:34.724Z,3.23
2022-12-01T04:47:02.437Z,3.15
2022-12-01T04:49:29.271Z,3.12
2022-12-01T04:51:56.074Z,-147.88
2022-12-01T04:54:24.729Z,-147.88
2022-12-01T04:56:51.389Z,-147.88
2022-12-01T04:59:18.043Z,-147.88
2022-12-01T05:01:46.634Z,-147.88
2022-12-01T05:04:13.943Z,-147.88
2022-12-01T05:06:42.710Z,-147.88
2022-12-01T05:09:17.089Z,-147.88
2022-12-01T05:11:46.127Z,-147.88
2022-12-01T05:14:12.940Z,-147.88
2022-12-01T05:16:39.816Z,-147.88
2022-12-01T05:19:25.421Z,-147.88
2022-12-01T05:21:52.518Z,-147.88
2022-12-01T05:24:20.115Z,-147.88
2022-12-01T05:26:48.387Z,-147.88
2022-12-01T05:29:15.314Z,-147.88
2022-12-01T05:31:42.071Z,-147.88
2022-12-01T05:34:09.089Z,-147.88
2022-12-01T05:36:36.460Z,-147.88
2022-12-01T05:39:03.681Z,-147.88
2022-12-01T05:41:30.701Z,-147.88
2022-12-01T05:43:58.885Z,-147.88
2022-12-01T05:46:25.761Z,-147.88
2022-12-01T05:48:52.470Z,-147.88
2022-12-01T05:51:19.130Z,-147.88
2022-12-01T05:53:46.048Z,-147.88
2022-12-01T05:56:13.032Z,-147.88
2022-12-01T05:58:41.059Z,-147.88
2022-12-01T06:01:09.220Z,-147.88
2022-12-01T06:03:35.920Z,-147.88
2022-12-01T06:06:03.615Z,-147.88
2022-12-01T06:08:30.527Z,-147.88
2022-12-01T06:10:57.747Z,-147.88
2022-12-01T06:13:24.550Z,-147.88
2022-12-01T06:15:58.189Z,-147.88
2022-12-01T06:18:27.537Z,-147.88
2022-12-01T06:20:54.275Z,-147.88
2022-12-01T06:23:21.190Z,-147.88
2022-12-01T06:25:48.190Z,-147.88
2022-12-01T06:28:14.969Z,2.73
2022-12-01T06:30:41.679Z,-147.88
2022-12-01T06:33:08.326Z,-147.88
2022-12-01T06:35:37.414Z,-147.88
2022-12-01T06:38:04.406Z,-147.88
2022-12-01T06:40:31.220Z,-147.88
2022-12-01T06:43:00.539Z,-147.88
2022-12-01T06:45:27.339Z,-147.88
2022-12-01T06:47:54.472Z,-147.88
2022-12-01T06:50:21.505Z,2.31
2022-12-01T06:52:49.696Z,2.27
2022-12-01T06:55:16.581Z,2.29
2022-12-01T06:57:43.532Z,2.25
2022-12-01T07:00:12.700Z,2.22
2022-12-01T07:02:40.292Z,2.23
2022-12-01T07:05:07.780Z,2.25
2022-12-01T07:07:36.222Z,2.25
2022-12-01T07:10:05.065Z,2.29
2022-12-01T07:12:32.066Z,-147.88
2022-12-01T07:15:01.248Z,-147.88
2022-12-01T07:17:28.216Z,-147.88
2022-12-01T07:19:54.880Z,-147.88
2022-12-01T07:22:21.584Z,-147.88
2022-12-01T07:24:48.307Z,-147.88
2022-12-01T07:27:16.937Z,-147.88
2022-12-01T07:29:43.881Z,-147.88
2022-12-01T07:32:13.447Z,-147.88
2022-12-01T07:34:40.566Z,-147.88
2022-12-01T07:37:07.255Z,-147.88
2022-12-01T07:39:33.972Z,-147.88
2022-12-01T07:42:00.715Z,-147.88
2022-12-01T07:44:28.880Z,-147.88
2022-12-01T07:46:55.853Z,-147.88
2022-12-01T07:49:22.523Z,-147.88
2022-12-01T07:51:49.318Z,-147.88
2022-12-01T07:54:17.636Z,-147.88
2022-12-01T07:56:44.479Z,-147.88
2022-12-01T07:59:12.199Z,-147.88
2022-12-01T08:01:44.479Z,-147.88
2022-12-01T08:04:12.380Z,-147.88
2022-12-01T08:06:39.321Z,-147.88
2022-12-01T08:09:06.451Z,-147.88
2022-12-01T08:11:33.368Z,-147.88
2022-12-01T08:14:00.105Z,-147.88
2022-12-01T08:16:27.097Z,-147.88
2022-12-01T08:18:55.325Z,-147.88
2022-12-01T08:21:24.103Z,-147.88
2022-12-01T08:23:54.415Z,2.21
2022-12-01T08:26:22.622Z,2.15
2022-12-01T08:28:49.696Z,2.17
2022-12-01T08:31:18.835Z,2.20
2022-12-01T08:33:46.287Z,-147.88
2022-12-01T08:36:15.515Z,2.21
2022-12-01T08:38:44.051Z,2.16
2022-12-01T08:41:11.474Z,2.19
2022-12-01T08:43:57.181Z,2.22
2022-12-01T08:46:25.523Z,2.27
2022-12-01T08:48:55.050Z,2.16
2022-12-01T08:51:24.163Z,2.16
2022-12-01T08:53:51.483Z,2.13
2022-12-01T08:56:20.833Z,-147.88
2022-12-01T08:58:47.558Z,-147.88
2022-12-01T09:01:16.424Z,-147.88
2022-12-01T09:03:44.189Z,-147.88
2022-12-01T09:06:13.901Z,-147.88
2022-12-01T09:08:42.608Z,-147.88
2022-12-01T09:11:12.894Z,-147.88
2022-12-01T09:13:40.742Z,-147.88
2022-12-01T09:16:10.452Z,-147.88
2022-12-01T09:18:37.417Z,-147.88
2022-12-01T09:21:10.917Z,-147.88
2022-12-01T09:23:37.758Z,-147.88
2022-12-01T09:26:10.843Z,-147.88
2022-12-01T09:28:40.070Z,-147.88
2022-12-01T09:31:08.370Z,-147.88
2022-12-01T09:33:35.462Z,-147.88
2022-12-01T09:36:03.533Z,-147.88
2022-12-01T09:38:30.815Z,-147.88
2022-12-01T09:41:01.338Z,-147.88
2022-12-01T09:43:35.271Z,-147.88
2022-12-01T09:46:03.937Z,-147.88
2022-12-01T09:48:34.752Z,-147.88
2022-12-01T09:51:01.691Z,-147.88
2022-12-01T09:53:29.763Z,-147.88
2022-12-01T09:56:04.172Z,-147.88
2022-12-01T09:58:35.477Z,-147.88
2022-12-01T10:01:02.395Z,-147.88
2022-12-01T10:03:34.859Z,-147.88
2022-12-01T10:09:05.628Z,-147.88
2022-12-01T10:11:36.962Z,-147.88
2022-12-01T10:14:13.960Z,-147.88
2022-12-01T10:16:49.051Z,-147.88
2022-12-01T10:19:21.956Z,-147.88
2022-12-01T10:22:02.773Z,-147.88
2022-12-01T10:24:47.080Z,-147.88
2022-12-01T10:27:30.593Z,-147.88
2022-12-01T10:30:04.800Z,-147.88
2022-12-01T10:32:41.130Z,-147.88
2022-12-01T10:35:11.246Z,-147.88
2022-12-01T10:37:38.482Z,-147.88
2022-12-01T10:40:12.128Z,-147.88
2022-12-01T10:42:43.021Z,-147.88
2022-12-01T10:45:19.620Z,-147.88
2022-12-01T10:48:09.477Z,-147.88
2022-12-01T10:50:37.165Z,-147.88
2022-12-01T10:53:04.706Z,-147.88
2022-12-01T10:55:33.987Z,-147.88
2022-12-01T10:58:09.257Z,-147.88
2022-12-01T11:03:30.511Z,-147.88
2022-12-01T11:06:00.029Z,-147.88
2022-12-01T11:08:34.043Z,-147.88
2022-12-01T11:11:01.612Z,-147.88
2022-12-01T11:13:31.259Z,-147.88
2022-12-01T11:16:01.206Z,-147.88
2022-12-01T11:18:32.871Z,-147.88
2022-12-01T11:21:12.742Z,-147.88
2022-12-01T11:23:45.508Z,-147.88
2022-12-01T11:26:15.984Z,-147.88
2022-12-01T11:28:52.248Z,2.79
2022-12-01T11:31:28.405Z,2.88
2022-12-01T11:33:57.924Z,2.74
2022-12-01T11:36:45.353Z,2.68
2022-12-01T11:39:26.721Z,2.58
2022-12-01T11:41:56.710Z,2.69
2022-12-01T11:47:24.973Z,2.74
2022-12-01T11:49:56.655Z,2.61
2022-12-01T11:52:30.004Z,2.55
2022-12-01T11:54:59.435Z,2.49
2022-12-01T11:57:35.216Z,2.53
2022-12-01T12:00:13.320Z,2.54
2022-12-01T12:02:51.992Z,2.58
2022-12-01T12:05:49.073Z,2.53
2022-12-01T12:08:26.854Z,2.54
2022-12-01T12:11:00.841Z,2.59
2022-12-01T12:13:51.786Z,2.59
2022-12-01T12:16:32.015Z,2.62
2022-12-01T12:19:25.405Z,2.65
2022-12-01T12:22:14.821Z,2.63
2022-12-01T12:24:55.500Z,2.71
2022-12-01T12:27:36.563Z,2.71
2022-12-01T12:30:17.925Z,2.67
2022-12-01T12:33:12.239Z,2.68
2022-12-01T12:35:50.486Z,2.66
2022-12-01T12:38:36.043Z,2.70
2022-12-01T12:41:18.506Z,2.72
2022-12-01T12:43:56.786Z,2.62
2022-12-01T12:46:32.122Z,2.66
2022-12-01T12:49:21.455Z,2.59
2022-12-01T12:51:57.134Z,2.60
2022-12-01T12:54:27.930Z,2.54
2022-12-01T12:57:00.631Z,2.63
2022-12-01T12:59:34.943Z,2.54
2022-12-01T13:02:09.830Z,2.58
2022-12-01T13:04:43.115Z,2.60
2022-12-01T13:07:32.250Z,2.61
2022-12-01T13:10:07.074Z,2.51
2022-12-01T13:12:39.407Z,2.55
2022-12-01T13:15:15.469Z,2.51
2022-12-01T13:17:46.195Z,2.46
2022-12-01T13:20:15.472Z,2.49
2022-12-01T13:22:46.040Z,2.50
2022-12-01T13:25:15.352Z,2.59
2022-12-01T13:27:44.293Z,2.62
2022-12-01T13:30:18.545Z,2.59
2022-12-01T13:32:46.514Z,2.55
2022-12-01T13:35:24.279Z,2.42
2022-12-01T13:37:54.094Z,2.45
2022-12-01T13:40:23.207Z,2.52
2022-12-01T13:43:00.272Z,2.57
2022-12-01T13:45:32.550Z,2.55
2022-12-01T13:48:00.613Z,2.54
2022-12-01T13:50:56.553Z,2.58
2022-12-01T13:53:34.400Z,2.63
2022-12-01T13:56:24.143Z,2.54
2022-12-01T13:58:52.831Z,2.53
2022-12-01T14:01:42.881Z,2.50
2022-12-01T14:04:34.844Z,2.59
2022-12-01T14:07:26.088Z,2.47
2022-12-01T14:09:58.253Z,2.57
2022-12-01T14:12:30.351Z,2.57
2022-12-01T14:15:00.979Z,2.52
2022-12-01T14:17:31.007Z,2.50
2022-12-01T14:20:08.538Z,2.53
2022-12-01T14:22:39.100Z,2.42
2022-12-01T14:25:30.430Z,2.52
2022-12-01T14:27:58.745Z,2.52
2022-12-01T14:31:05.975Z,2.48
2022-12-01T14:33:52.880Z,2.33
2022-12-01T14:36:27.604Z,2.34
2022-12-01T14:39:01.570Z,2.36
2022-12-01T14:41:30.809Z,2.40
2022-12-01T14:44:04.944Z,2.45
2022-12-01T14:46:40.825Z,-147.88
2022-12-01T14:49:14.368Z,-147.88
2022-12-01T14:51:46.013Z,2.34
2022-12-01T14:54:21.243Z,2.31
2022-12-01T14:56:53.787Z,2.21
2022-12-01T14:59:22.992Z,2.27
2022-12-01T15:01:52.795Z,2.21
2022-12-01T15:04:20.199Z,2.24
2022-12-01T15:06:52.825Z,2.15
2022-12-01T15:09:36.643Z,2.03
2022-12-01T15:12:09.288Z,2.12
2022-12-01T15:14:38.175Z,2.07
2022-12-01T15:17:07.103Z,2.09
2022-12-01T15:19:36.408Z,1.97
2022-12-01T15:22:07.392Z,2.02
2022-12-01T15:24:34.488Z,2.01
2022-12-01T15:27:04.011Z,2.10
2022-12-01T15:29:35.458Z,2.02
2022-12-01T15:32:06.205Z,1.94
2022-12-01T15:34:36.779Z,1.91
2022-12-01T15:37:05.487Z,2.00
2022-12-01T15:39:36.057Z,1.90
2022-12-01T15:42:04.269Z,2.00
2022-12-01T15:44:34.521Z,1.91
2022-12-01T15:47:32.688Z,1.88
2022-12-01T15:49:59.497Z,1.95
2022-12-01T15:52:26.669Z,1.88
2022-12-01T15:54:56.797Z,1.85
2022-12-01T15:57:25.565Z,1.90
2022-12-01T15:59:59.610Z,1.98
2022-12-01T16:02:31.461Z,1.88
2022-12-01T16:05:04.404Z,1.89
2022-12-01T16:07:57.188Z,1.88
2022-12-01T16:10:30.375Z,1.90
2022-12-01T16:13:35.708Z,1.85
2022-12-01T16:16:21.171Z,1.97
2022-12-01T16:18:53.650Z,1.82
2022-12-01T16:21:20.719Z,1.86
2022-12-01T16:23:47.597Z,1.91
2022-12-01T16:26:14.457Z,1.88
2022-12-01T16:28:42.294Z,1.91
2022-12-01T16:31:19.077Z,1.89
2022-12-01T16:33:46.189Z,1.89
2022-12-01T16:36:25.414Z,1.90
2022-12-01T16:38:53.405Z,1.86
2022-12-01T16:41:37.924Z,1.77
2022-12-01T16:44:27.596Z,1.70
2022-12-01T16:46:53.598Z,1.83
2022-12-01T16:49:20.612Z,1.85
2022-12-01T16:51:55.785Z,1.78
2022-12-01T16:54:23.182Z,1.87
2022-12-01T16:56:49.897Z,1.73
2022-12-01T16:59:16.608Z,1.83
2022-12-01T17:01:43.399Z,1.87
2022-12-01T17:04:11.799Z,1.89
2022-12-01T17:06:38.771Z,1.78
2022-12-01T17:09:06.081Z,1.80
2022-12-01T17:11:32.872Z,1.84
2022-12-01T17:13:59.837Z,1.78
2022-12-01T17:16:28.006Z,1.81
2022-12-01T17:18:58.675Z,1.82
2022-12-01T17:21:26.946Z,1.81
2022-12-01T17:23:53.773Z,1.73
2022-12-01T17:26:21.594Z,1.74
2022-12-01T17:28:48.906Z,1.78
2022-12-01T17:31:16.486Z,1.79
2022-12-01T17:33:43.250Z,1.76
2022-12-01T17:36:12.316Z,1.80
2022-12-01T17:38:43.086Z,1.78
2022-12-01T17:41:11.693Z,1.75
2022-12-01T17:43:39.307Z,1.87
2022-12-01T17:46:08.298Z,1.84
2022-12-01T17:48:36.510Z,1.82
2022-12-01T17:51:03.763Z,1.81
2022-12-01T17:53:32.153Z,1.91
2022-12-01T17:56:00.847Z,2.02
2022-12-01T17:58:28.444Z,3.11
2022-12-01T18:00:55.545Z,-147.88
2022-12-01T18:03:22.408Z,-147.88
2022-12-01T18:05:56.121Z,-147.88
2022-12-01T18:08:23.620Z,-147.88
2022-12-01T18:10:50.577Z,-147.88
2022-12-01T18:13:21.233Z,-147.88
2022-12-01T18:15:48.262Z,-147.88
2022-12-01T18:18:16.969Z,-147.88
2022-12-01T18:20:44.928Z,-147.88
2022-12-01T18:23:12.886Z,-147.88
2022-12-01T18:25:40.535Z,-147.88
2022-12-01T18:28:07.902Z,-147.88
2022-12-01T18:30:35.994Z,-147.88
2022-12-01T18:33:02.709Z,-147.88
2022-12-01T18:35:31.936Z,-147.88
2022-12-01T18:37:59.457Z,-147.88
2022-12-01T18:40:26.309Z,-147.88
2022-12-01T18:42:53.218Z,-147.88
2022-12-01T18:45:21.961Z,-147.88
2022-12-01T18:47:50.199Z,-147.88
2022-12-01T18:50:17.150Z,-147.88
2022-12-01T18:52:43.885Z,-147.88
2022-12-01T18:55:11.126Z,-147.88
2022-12-01T18:57:37.962Z,-147.88
2022-12-01T19:00:06.245Z,-147.88
2022-12-01T19:02:33.260Z,-147.88
2022-12-01T19:05:01.570Z,-147.88
2022-12-01T19:07:30.163Z,-147.88
2022-12-01T19:09:57.063Z,-147.88
2022-12-01T19:12:24.054Z,-147.88
2022-12-01T19:14:53.142Z,-147.88
2022-12-01T19:17:20.392Z,-147.88
2022-12-01T19:19:47.403Z,-147.88
2022-12-01T19:22:15.644Z,-147.88
2022-12-01T19:24:48.652Z,-147.88
2022-12-01T19:27:18.793Z,-147.88
2022-12-01T19:29:47.068Z,-147.88
2022-12-01T19:32:14.739Z,-147.88
2022-12-01T19:34:41.967Z,-147.88
2022-12-01T19:37:08.987Z,-147.88
2022-12-01T19:39:37.316Z,-147.88
2022-12-01T19:42:04.588Z,-147.88
2022-12-01T19:44:31.347Z,-147.88
2022-12-01T19:46:58.034Z,-147.88
2022-12-01T19:49:25.032Z,-147.88
2022-12-01T19:51:51.765Z,-147.88
2022-12-01T19:54:19.983Z,-147.88
2022-12-01T19:56:49.073Z,-147.88
2022-12-01T19:59:16.953Z,-147.88
2022-12-01T20:01:43.986Z,-147.88
2022-12-01T20:04:10.928Z,-147.88
2022-12-01T20:06:38.299Z,-147.88
2022-12-01T20:09:07.754Z,-147.88
2022-12-01T20:11:35.560Z,-147.88
2022-12-01T20:14:07.581Z,-147.88
2022-12-01T20:16:36.424Z,-147.88
2022-12-01T20:19:06.701Z,-147.88
2022-12-01T20:21:37.095Z,-147.88
2022-12-01T20:24:05.943Z,-147.88
2022-12-01T20:26:34.745Z,-147.88
2022-12-01T20:29:04.993Z,-147.88
2022-12-01T20:31:33.346Z,-147.88
2022-12-01T20:34:02.614Z,-147.88
2022-12-01T20:36:30.392Z,-147.88
2022-12-01T20:38:57.215Z,-147.88
2022-12-01T20:41:24.162Z,-147.88
2022-12-01T20:43:51.176Z,-147.88
2022-12-01T20:46:19.430Z,-147.88
2022-12-01T20:48:46.237Z,-147.88
2022-12-01T20:51:15.744Z,-147.88
2022-12-01T20:54:05.591Z,-147.88
2022-12-01T20:56:33.513Z,-147.88
2022-12-01T20:59:00.938Z,-147.88
2022-12-01T21:01:29.255Z,-147.88
2022-12-01T21:03:58.897Z,-147.88
2022-12-01T21:06:30.309Z,-147.88
2022-12-01T21:08:57.288Z,-147.88
2022-12-01T21:11:55.581Z,-147.88
2022-12-01T21:14:28.232Z,-147.88
2022-12-01T21:17:02.703Z,-147.88
2022-12-01T21:19:43.370Z,-147.88
2022-12-01T21:22:13.970Z,-147.88
2022-12-01T21:24:43.779Z,-147.88
2022-12-01T21:27:14.059Z,-147.88
2022-12-01T21:29:43.756Z,-147.88
2022-12-01T21:32:15.428Z,-147.88
2022-12-01T21:34:43.444Z,-147.88
2022-12-01T21:37:16.135Z,-147.88
2022-12-01T21:39:43.076Z,-147.88
2022-12-01T21:42:18.334Z,-147.88
2022-12-01T21:44:45.625Z,-147.88
2022-12-01T21:47:19.216Z,-147.88
2022-12-01T21:49:47.787Z,-147.88
2022-12-01T21:52:19.085Z,-147.88
2022-12-01T21:54:46.368Z,-147.88
2022-12-01T21:57:32.204Z,-147.88
2022-12-01T22:00:23.847Z,-147.88
2022-12-01T22:02:58.547Z,-147.88
2022-12-01T22:05:34.994Z,-147.88
2022-12-01T22:08:24.156Z,-147.88
2022-12-01T22:10:56.481Z,-147.88
2022-12-01T22:13:26.503Z,-147.88
2022-12-01T22:15:54.921Z,-147.88
2022-12-01T22:18:27.505Z,-147.88
2022-12-01T22:20:54.345Z,-147.88
2022-12-01T22:23:25.505Z,-147.88
2022-12-01T22:25:52.205Z,-147.88
2022-12-01T22:28:23.430Z,-147.88
2022-12-01T22:30:50.350Z,-147.88
2022-12-01T22:33:21.174Z,-147.88
2022-12-01T22:35:50.490Z,-147.88
2022-12-01T22:38:35.607Z,-147.88
2022-12-01T22:41:09.209Z,-147.88
2022-12-01T22:43:44.939Z,-147.88
2022-12-01T22:46:30.964Z,-147.88
2022-12-01T22:49:00.045Z,-147.88
2022-12-01T22:51:38.168Z,-147.88
2022-12-01T22:54:25.245Z,-147.88
2022-12-01T22:57:04.197Z,-147.88
2022-12-01T22:59:35.246Z,-147.88
2022-12-01T23:02:12.222Z,-147.88
2022-12-01T23:04:41.746Z,-147.88
2022-12-01T23:07:28.429Z,-147.88
2022-12-01T23:09:57.924Z,-147.88
2022-12-01T23:12:30.060Z,-147.88
2022-12-01T23:14:59.194Z,-147.88
2022-12-01T23:17:28.336Z,-147.88
2022-12-01T23:20:14.825Z,-147.88
2022-12-01T23:22:43.051Z,-147.88
2022-12-01T23:25:13.944Z,-147.88
2022-12-01T23:27:41.147Z,-147.88
2022-12-01T23:30:09.403Z,-147.88
2022-12-01T23:32:36.798Z,-147.88
2022-12-01T23:35:03.721Z,-147.88
2022-12-01T23:37:34.214Z,-147.88
2022-12-01T23:40:07.472Z,-147.88
2022-12-01T23:42:34.093Z,-147.88
2022-12-01T23:45:01.773Z,-147.88
2022-12-01T23:47:29.908Z,-147.88
2022-12-01T23:50:00.178Z,-147.88
2022-12-01T23:52:33.594Z,-147.88
2022-12-01T23:55:00.508Z,-147.88
2022-12-01T23:57:30.616Z,-147.88
